createdAt,value
2022-09-05T00:03:37.198Z,11.66
2022-09-05T00:08:05.722Z,11.45
2022-09-05T00:12:30.441Z,11.36
2022-09-05T00:16:59.838Z,11.26
2022-09-05T00:24:19.421Z,11.08
2022-09-05T00:26:28.648Z,10.81
2022-09-05T00:31:53.587Z,10.65
2022-09-05T00:36:28.188Z,10.47
2022-09-05T00:40:57.231Z,10.23
2022-09-05T00:45:31.246Z,10.18
2022-09-05T00:50:07.693Z,10.00
2022-09-05T00:54:40.450Z,9.97
2022-09-05T00:59:23.408Z,9.84
2022-09-05T01:04:32.701Z,9.66
2022-09-05T01:09:08.014Z,9.76
2022-09-05T01:14:09.195Z,9.60
2022-09-05T01:18:50.945Z,9.45
2022-09-05T01:23:37.095Z,9.41
2022-09-05T01:29:13.614Z,9.41
2022-09-05T01:32:56.782Z,9.37
2022-09-05T01:37:42.419Z,9.40
2022-09-05T01:42:23.360Z,9.44
2022-09-05T01:47:10.158Z,9.39
2022-09-05T01:52:00.008Z,9.34
2022-09-05T01:56:28.622Z,9.30
2022-09-05T02:01:32.058Z,9.31
2022-09-05T02:06:08.027Z,9.14
2022-09-05T02:10:55.382Z,8.91
2022-09-05T02:15:22.288Z,8.92
2022-09-05T02:19:50.527Z,8.75
2022-09-05T02:24:23.452Z,8.63
2022-09-05T02:28:49.783Z,8.53
2022-09-05T02:33:32.090Z,8.44
2022-09-05T02:41:24.513Z,8.32
2022-09-05T02:45:09.109Z,8.17
2022-09-05T02:47:54.791Z,7.95
2022-09-05T02:57:30.241Z,7.73
2022-09-05T02:57:34.404Z,7.51
2022-09-05T03:02:26.540Z,7.51
2022-09-05T03:07:30.003Z,7.29
2022-09-05T03:12:49.196Z,7.00
2022-09-05T03:17:38.917Z,6.94
2022-09-05T03:22:08.557Z,6.95
2022-09-05T03:26:47.330Z,6.91
2022-09-05T03:31:40.051Z,6.76
2022-09-05T03:36:19.039Z,6.64
2022-09-05T03:41:01.050Z,6.46
2022-09-05T03:45:37.749Z,6.40
2022-09-05T03:54:22.933Z,6.38
2022-09-05T03:57:10.814Z,6.32
2022-09-05T04:00:34.887Z,6.23
2022-09-05T04:08:17.040Z,6.26
2022-09-05T04:09:57.551Z,6.09
2022-09-05T04:14:59.351Z,6.25
2022-09-05T04:19:40.648Z,6.23
2022-09-05T04:24:31.337Z,6.28
2022-09-05T04:29:15.151Z,6.27
2022-09-05T04:33:46.322Z,6.38
2022-09-05T04:38:36.685Z,6.58
2022-09-05T04:43:05.083Z,6.78
2022-09-05T04:47:31.294Z,6.82
2022-09-05T04:52:23.609Z,6.97
2022-09-05T04:57:02.212Z,7.27
2022-09-05T05:06:01.308Z,7.61
2022-09-05T05:06:46.119Z,7.88
2022-09-05T05:17:53.747Z,8.12
2022-09-05T05:18:16.250Z,8.40
2022-09-05T05:21:24.755Z,8.69
2022-09-05T05:25:55.532Z,8.86
2022-09-05T05:30:27.944Z,9.07
2022-09-05T05:34:54.110Z,9.21
2022-09-05T05:39:23.961Z,9.42
2022-09-05T05:43:46.833Z,9.70
2022-09-05T05:48:19.814Z,9.86
2022-09-05T05:53:07.258Z,10.08
2022-09-05T05:57:54.034Z,10.33
2022-09-05T06:03:09.765Z,10.60
2022-09-05T06:10:39.043Z,11.01
2022-09-05T06:14:57.995Z,11.41
2022-09-05T06:18:29.038Z,11.82
2022-09-05T06:23:45.140Z,12.29
2022-09-05T06:28:22.611Z,12.67
2022-09-05T06:32:58.814Z,12.88
2022-09-05T06:37:41.185Z,13.25
2022-09-05T06:42:30.643Z,13.69
2022-09-05T06:47:22.722Z,14.05
2022-09-05T06:52:16.594Z,14.15
2022-09-05T06:56:59.822Z,14.40
2022-09-05T07:01:44.780Z,14.57
2022-09-05T07:06:19.862Z,14.86
2022-09-05T07:10:49.099Z,15.06
2022-09-05T07:15:15.210Z,15.37
2022-09-05T07:19:44.717Z,15.40
2022-09-05T07:24:11.336Z,15.58
2022-09-05T07:28:33.297Z,15.70
2022-09-05T07:32:58.791Z,15.86
2022-09-05T07:37:46.643Z,16.03
2022-09-05T07:42:14.327Z,16.25
2022-09-05T07:46:39.687Z,16.38
2022-09-05T07:55:49.315Z,16.57
2022-09-05T07:57:01.707Z,16.85
2022-09-05T08:00:31.262Z,17.20
2022-09-05T08:04:51.595Z,16.91
2022-09-05T08:10:05.558Z,16.83
2022-09-05T08:14:43.518Z,17.41
2022-09-05T08:19:21.534Z,17.36
2022-09-05T08:23:51.071Z,17.26
2022-09-05T08:28:14.035Z,17.64
2022-09-05T08:32:40.603Z,17.78
2022-09-05T08:37:01.857Z,17.96
2022-09-05T08:41:49.920Z,17.90
2022-09-05T08:46:44.585Z,18.50
2022-09-05T08:51:19.991Z,18.37
2022-09-05T08:56:11.145Z,18.37
2022-09-05T09:00:55.765Z,18.54
2022-09-05T09:06:12.870Z,18.88
2022-09-05T09:10:46.271Z,18.62
2022-09-05T09:15:35.451Z,19.09
2022-09-05T09:20:22.883Z,18.83
2022-09-05T09:25:15.194Z,18.72
2022-09-05T09:29:40.331Z,18.86
2022-09-05T09:34:38.335Z,19.22
2022-09-05T09:39:11.630Z,19.28
2022-09-05T09:44:11.735Z,19.10
2022-09-05T09:48:51.668Z,19.15
2022-09-05T09:53:14.520Z,19.04
2022-09-05T09:57:47.325Z,19.58
2022-09-05T10:02:26.779Z,19.58
2022-09-05T10:10:44.491Z,19.63
2022-09-05T10:12:17.757Z,19.64
2022-09-05T10:16:53.962Z,19.44
2022-09-05T10:21:36.703Z,19.28
2022-09-05T10:26:25.186Z,19.24
2022-09-05T10:32:34.670Z,19.36
2022-09-05T10:36:24.943Z,19.14
2022-09-05T10:41:20.171Z,19.27
2022-09-05T10:45:57.613Z,19.54
2022-09-05T10:50:27.568Z,19.61
2022-09-05T10:55:14.725Z,19.32
2022-09-05T11:02:20.929Z,19.15
2022-09-05T11:04:50.332Z,18.82
2022-09-05T11:09:26.642Z,18.59
2022-09-05T11:13:50.363Z,19.24
2022-09-05T11:18:23.683Z,19.65
2022-09-05T11:23:08.938Z,19.84
2022-09-05T11:27:37.419Z,20.47
2022-09-05T11:34:24.692Z,20.48
2022-09-05T11:39:52.457Z,20.53
2022-09-05T11:42:21.190Z,20.59
2022-09-05T11:47:28.216Z,20.46
2022-09-05T11:51:51.263Z,20.46
2022-09-05T11:56:34.116Z,20.58
2022-09-05T12:01:44.075Z,20.72
2022-09-05T12:06:21.353Z,20.61
2022-09-05T12:10:48.406Z,20.94
2022-09-05T12:15:21.574Z,20.67
2022-09-05T12:19:47.631Z,20.63
2022-09-05T12:25:17.182Z,20.75
2022-09-05T12:29:33.965Z,20.68
2022-09-05T12:36:06.370Z,20.83
2022-09-05T12:40:57.849Z,20.78
2022-09-05T12:44:36.622Z,21.03
2022-09-05T12:48:11.431Z,21.30
2022-09-05T12:52:34.006Z,21.32
2022-09-05T13:00:05.608Z,21.08
2022-09-05T13:03:12.781Z,21.50
2022-09-05T13:06:47.105Z,21.30
2022-09-05T13:14:47.604Z,21.52
2022-09-05T13:15:53.860Z,21.51
2022-09-05T13:20:36.922Z,21.50
2022-09-05T13:25:08.709Z,21.43
2022-09-05T13:31:28.586Z,21.30
2022-09-05T13:38:10.165Z,21.16
2022-09-05T13:39:36.484Z,21.51
2022-09-05T13:44:00.205Z,21.42
2022-09-05T13:49:27.630Z,21.81
2022-09-05T13:54:13.299Z,21.24
2022-09-05T13:58:56.730Z,21.45
2022-09-05T14:03:44.427Z,21.48
2022-09-05T14:08:34.039Z,21.21
2022-09-05T14:13:02.654Z,21.46
2022-09-05T14:17:53.734Z,21.80
2022-09-05T14:22:34.880Z,21.66
2022-09-05T14:27:03.161Z,22.04
2022-09-05T14:37:36.803Z,21.72
2022-09-05T14:37:49.993Z,22.38
2022-09-05T14:41:02.790Z,21.90
2022-09-05T14:45:17.668Z,21.96
2022-09-05T14:49:40.717Z,21.80
2022-09-05T14:54:11.944Z,21.58
2022-09-05T15:02:42.334Z,21.84
2022-09-05T15:03:02.619Z,21.73
2022-09-05T15:07:20.913Z,21.42
2022-09-05T15:12:21.387Z,21.01
2022-09-05T15:16:02.542Z,20.53
2022-09-05T15:20:08.056Z,20.15
2022-09-05T15:24:31.373Z,20.43
2022-09-05T15:28:36.186Z,21.51
2022-09-05T15:32:39.300Z,25.30
2022-09-05T15:36:41.496Z,27.76
2022-09-05T15:40:43.822Z,28.57
2022-09-05T15:45:09.193Z,29.15
2022-09-05T15:49:49.789Z,29.35
2022-09-05T15:54:37.729Z,28.71
2022-09-05T15:58:53.132Z,28.27
2022-09-05T16:03:55.295Z,26.98
2022-09-05T16:10:34.100Z,24.19
2022-09-05T16:12:14.202Z,22.34
2022-09-05T16:23:11.644Z,21.27
2022-09-05T16:23:26.017Z,20.47
2022-09-05T16:25:16.493Z,20.00
2022-09-05T16:29:26.209Z,19.60
2022-09-05T16:33:36.487Z,19.17
2022-09-05T16:38:00.426Z,18.91
2022-09-05T16:42:20.505Z,18.46
2022-09-05T16:46:41.956Z,18.20
2022-09-05T16:50:52.290Z,17.93
2022-09-05T16:54:58.230Z,17.61
2022-09-05T16:59:16.097Z,17.18
2022-09-05T17:03:41.796Z,16.80
2022-09-05T17:08:06.435Z,16.62
2022-09-05T17:12:23.705Z,16.21
2022-09-05T17:16:38.013Z,15.94
2022-09-05T17:20:42.275Z,15.58
2022-09-05T17:29:17.372Z,15.39
2022-09-05T17:31:27.679Z,15.14
2022-09-05T17:34:32.393Z,14.86
2022-09-05T17:38:37.204Z,14.54
2022-09-05T17:42:56.057Z,14.27
2022-09-05T17:47:10.397Z,14.13
2022-09-05T17:51:18.100Z,13.99
2022-09-05T17:55:20.494Z,13.76
2022-09-05T17:59:24.704Z,13.57
2022-09-05T18:03:38.719Z,13.48
2022-09-05T18:07:43.502Z,13.36
2022-09-05T18:13:11.636Z,13.05
2022-09-05T18:17:36.235Z,12.90
2022-09-05T18:26:00.144Z,12.53
2022-09-05T18:30:10.281Z,12.51
2022-09-05T18:34:15.687Z,12.48
2022-09-05T18:38:52.309Z,12.37
2022-09-05T18:42:53.191Z,12.20
2022-09-05T18:47:00.526Z,12.17
2022-09-05T18:51:15.028Z,12.14
2022-09-05T18:56:09.707Z,12.03
2022-09-05T18:59:53.771Z,11.88
2022-09-05T19:04:01.998Z,11.93
2022-09-05T19:08:29.023Z,11.89
2022-09-05T19:12:47.879Z,11.87
2022-09-05T19:17:31.519Z,11.87
2022-09-05T19:21:34.730Z,11.90
2022-09-05T19:25:41.505Z,11.99
2022-09-05T19:36:48.765Z,12.03
2022-09-05T19:36:57.235Z,11.96
2022-09-05T19:40:50.190Z,12.00
2022-09-05T19:47:43.031Z,12.03
2022-09-05T19:51:56.688Z,12.08
2022-09-05T19:56:05.904Z,12.09
2022-09-05T20:00:09.237Z,12.16
2022-09-05T20:04:18.953Z,12.21
2022-09-05T20:08:39.286Z,12.11
2022-09-05T20:12:41.317Z,11.96
2022-09-05T20:16:43.479Z,11.91
2022-09-05T20:21:07.830Z,11.75
2022-09-05T20:25:34.683Z,11.74
2022-09-05T20:29:54.877Z,11.55
2022-09-05T20:34:03.445Z,11.40
2022-09-05T20:43:31.553Z,11.24
2022-09-05T20:43:35.204Z,11.30
2022-09-05T20:54:05.002Z,11.03
2022-09-05T20:54:26.196Z,11.00
2022-09-05T20:56:32.589Z,10.87
2022-09-05T21:00:37.649Z,10.77
2022-09-05T21:04:42.079Z,10.67
2022-09-05T21:08:44.435Z,10.59
2022-09-05T21:12:49.064Z,10.41
2022-09-05T21:17:13.390Z,10.30
2022-09-05T21:21:30.172Z,10.27
2022-09-05T21:25:41.394Z,10.17
2022-09-05T21:29:49.631Z,10.11
2022-09-05T21:34:02.973Z,10.07
2022-09-05T21:38:10.636Z,9.96
2022-09-05T21:43:52.988Z,9.87
2022-09-05T21:47:49.929Z,9.75
2022-09-05T21:51:03.952Z,9.69
2022-09-05T21:59:21.973Z,9.62
2022-09-05T21:59:40.040Z,9.58
2022-09-05T22:03:47.319Z,9.55
2022-09-05T22:07:51.307Z,9.55
2022-09-05T22:11:56.294Z,9.49
2022-09-05T22:16:04.676Z,9.51
2022-09-05T22:20:08.892Z,9.47
2022-09-05T22:24:11.841Z,9.47
2022-09-05T22:28:27.334Z,9.41
2022-09-05T22:32:36.065Z,9.32
2022-09-05T22:36:38.282Z,9.29
2022-09-05T22:40:43.705Z,9.20
2022-09-05T22:44:48.245Z,9.12
2022-09-05T22:48:56.035Z,9.11
2022-09-05T22:53:02.962Z,9.06
2022-09-05T22:57:05.557Z,9.03
2022-09-05T23:01:08.533Z,8.98
2022-09-05T23:05:10.955Z,8.87
2022-09-05T23:09:13.452Z,8.89
2022-09-05T23:13:15.938Z,8.81
2022-09-05T23:17:18.107Z,8.72
2022-09-05T23:21:20.659Z,8.65
2022-09-05T23:25:23.853Z,8.51
2022-09-05T23:29:26.391Z,8.36
2022-09-05T23:33:29.582Z,8.26
2022-09-05T23:37:31.825Z,8.10
2022-09-05T23:41:34.035Z,7.80
2022-09-05T23:45:36.507Z,7.83
2022-09-05T23:49:38.634Z,7.84
2022-09-05T23:53:41.760Z,7.64
2022-09-05T23:57:44.792Z,7.61
